Time;durP1;ratioP1;P1;durP2;ratioP2;P2;SDS_P1;SDS_P2;PMS_P1;PMS_P2;Temp;Humidity;BMP_temperature;BMP_pressure;BME280_temperature;BME280_humidity;BME280_pressure;Samples;Min_cycle;Max_cycle;Signal;HPM_P1;HPM_P2
2020/12/26 00:00:03;;;;;;;3.35;2.40;;;;;;;2.85;65.67;101598.00;693770;28;21975;-64
2020/12/26 00:00:33;;;;;;;4.70;2.30;;;;;;;2.85;65.66;101598.00;688402;28;159990;-65
2020/12/26 00:00:54;;;;;;;3.55;2.50;;;;;;;2.86;65.74;101599.72;692393;28;44405;-63
2020/12/26 00:01:16;;;;;;;2.92;2.50;;;;;;;2.86;65.71;101587.22;694178;28;22448;-64
2020/12/26 00:01:37;;;;;;;2.50;2.30;;;;;;;2.84;65.70;101580.31;695543;28;39605;-64
2020/12/26 00:01:59;;;;;;;3.10;2.50;;;;;;;2.85;65.81;101592.69;697530;28;45358;-64
2020/12/26 00:02:21;;;;;;;2.50;2.25;;;;;;;2.83;65.76;101587.44;699318;28;23471;-64
2020/12/26 00:02:42;;;;;;;3.33;2.65;;;;;;;2.82;65.78;101588.44;698160;28;45109;-63
2020/12/26 00:03:03;;;;;;;3.55;2.30;;;;;;;2.83;65.92;101583.94;698531;28;23538;-64
2020/12/26 00:03:25;;;;;;;3.97;2.30;;;;;;;2.81;65.80;101592.03;698032;28;46705;-64
2020/12/26 00:03:47;;;;;;;7.45;2.80;;;;;;;2.80;65.85;101587.66;699392;28;22425;-65
2020/12/26 00:04:09;;;;;;;4.68;2.50;;;;;;;2.83;65.83;101581.25;697827;28;68715;-64
2020/12/26 00:04:31;;;;;;;3.60;2.28;;;;;;;2.84;65.93;101593.66;697590;28;45341;-64
2020/12/26 00:04:52;;;;;;;2.88;2.28;;;;;;;2.82;66.00;101588.44;699309;28;20748;-63
2020/12/26 00:05:13;;;;;;;2.67;2.47;;;;;;;2.83;65.87;101586.59;698151;28;45216;-64
2020/12/26 00:05:36;;;;;;;3.40;2.42;;;;;;;2.80;65.92;101579.66;699229;28;22369;-64
2020/12/26 00:05:58;;;;;;;3.80;2.42;;;;;;;2.83;65.87;101584.78;697407;28;69328;-64
2020/12/26 00:06:20;;;;;;;2.72;2.38;;;;;;;2.84;65.86;101588.31;695301;28;44372;-64
2020/12/26 00:06:42;;;;;;;3.75;2.30;;;;;;;2.83;65.99;101586.59;694997;28;44380;-63
2020/12/26 00:07:03;;;;;;;4.10;2.20;;;;;;;2.84;65.89;101591.00;695892;28;21545;-64
2020/12/26 00:07:25;;;;;;;2.55;2.20;;;;;;;2.83;65.75;101582.09;695823;28;22881;-63
2020/12/26 00:07:46;;;;;;;2.47;2.28;;;;;;;2.83;65.73;101589.28;695174;28;46299;-62
2020/12/26 00:08:07;;;;;;;2.47;2.22;;;;;;;2.85;65.89;101587.34;696914;28;24338;-64
2020/12/26 00:08:28;;;;;;;3.08;2.53;;;;;;;2.83;65.62;101587.44;697415;28;44408;-63
2020/12/26 00:08:50;;;;;;;3.28;2.50;;;;;;;2.83;65.61;101582.09;699330;28;21546;-64
2020/12/26 00:09:12;;;;;;;3.05;2.38;;;;;;;2.82;65.82;101583.09;697752;28;45394;-63
2020/12/26 00:09:34;;;;;;;3.33;2.38;;;;;;;2.82;65.86;101585.75;696437;28;47557;-64
2020/12/26 00:09:55;;;;;;;2.67;2.25;;;;;;;2.80;65.77;101584.16;697457;28;23441;-63
2020/12/26 00:10:16;;;;;;;2.20;2.10;;;;;;;2.79;65.77;101577.09;697458;28;23535;-63
2020/12/26 00:10:38;;;;;;;2.20;2.00;;;;;;;2.80;65.90;101576.97;697098;28;41315;-64
2020/12/26 00:10:59;;;;;;;3.08;2.33;;;;;;;2.81;65.93;101584.03;697019;28;22748;-64
2020/12/26 00:11:20;;;;;;;3.72;2.60;;;;;;;2.80;65.91;101568.13;698440;28;1452;-64
2020/12/26 00:11:42;;;;;;;4.72;2.33;;;;;;;2.80;65.82;101584.16;698805;28;22372;-64
2020/12/26 00:12:03;;;;;;;5.00;2.53;;;;;;;2.77;65.74;101577.19;698594;28;22520;-64
2020/12/26 00:12:25;;;;;;;4.60;2.45;;;;;;;2.75;65.81;101573.78;699168;28;22380;-63
2020/12/26 00:12:47;;;;;;;3.58;2.00;;;;;;;2.74;65.93;101571.22;698224;28;44570;-64
2020/12/26 00:13:08;;;;;;;2.60;1.92;;;;;;;2.74;65.98;101580.06;698352;28;44402;-64
2020/12/26 00:13:29;;;;;;;2.45;2.00;;;;;;;2.74;65.93;101572.06;699206;28;22185;-63
2020/12/26 00:13:50;;;;;;;3.47;2.30;;;;;;;2.74;66.15;101568.56;698412;28;44388;-64
2020/12/26 00:14:12;;;;;;;4.28;2.90;;;;;;;2.75;65.97;101578.28;698709;28;22567;-64
2020/12/26 00:14:33;;;;;;;3.28;2.75;;;;;;;2.75;66.12;101576.47;697660;28;45196;-64
2020/12/26 00:14:55;;;;;;;3.38;2.40;;;;;;;2.75;66.03;101570.28;698840;28;22440;-65
2020/12/26 00:15:16;;;;;;;2.97;2.33;;;;;;;2.76;66.05;101580.84;698317;28;44775;-64
2020/12/26 00:15:37;;;;;;;2.85;2.60;;;;;;;2.76;66.12;101575.50;699155;28;23408;-64
2020/12/26 00:15:59;;;;;;;3.13;2.33;;;;;;;2.77;65.98;101571.84;699000;28;22426;-64
2020/12/26 00:16:20;;;;;;;7.78;2.50;;;;;;;2.77;65.98;101574.53;699060;28;24038;-64
2020/12/26 00:16:41;;;;;;;5.43;2.35;;;;;;;2.78;65.98;101580.75;698596;28;46360;-64
2020/12/26 00:17:03;;;;;;;4.65;2.17;;;;;;;2.77;66.03;101574.53;698660;28;23388;-63
2020/12/26 00:17:25;;;;;;;3.22;2.38;;;;;;;2.78;65.99;101578.91;698010;28;46335;-65
2020/12/26 00:17:46;;;;;;;2.92;2.10;;;;;;;2.78;65.97;101576.25;698951;28;20359;-64
2020/12/26 00:18:07;;;;;;;2.87;2.40;;;;;;;2.76;65.87;101575.50;699340;28;23471;-64
2020/12/26 00:18:29;;;;;;;3.28;2.35;;;;;;;2.75;65.83;101576.47;698502;28;46345;-64
2020/12/26 00:18:50;;;;;;;2.80;2.20;;;;;;;2.75;65.81;101575.63;699261;28;22384;-64
2020/12/26 00:19:15;;;;;;;3.25;2.00;;;;;;;2.74;66.09;101584.56;698470;28;44398;-64
2020/12/26 00:19:36;;;;;;;2.92;2.40;;;;;;;2.73;66.07;101580.19;696326;28;93083;-64
2020/12/26 00:19:57;;;;;;;2.92;2.10;;;;;;;2.73;66.01;101583.72;698072;28;44412;-63
2020/12/26 00:20:19;;;;;;;3.20;2.15;;;;;;;2.72;66.19;101582.00;698790;28;20877;-63
2020/12/26 00:20:41;;;;;;;2.83;2.00;;;;;;;2.73;66.12;101583.72;698526;28;46381;-64
2020/12/26 00:21:05;;;;;;;4.72;2.22;;;;;;;2.71;65.99;101580.28;699310;28;23444;-63
2020/12/26 00:21:26;;;;;;;2.88;2.33;;;;;;;2.73;66.06;101581.06;697233;28;75604;-64
2020/12/26 00:21:48;;;;;;;2.60;2.33;;;;;;;2.74;65.95;101579.22;698485;28;42103;-64
2020/12/26 00:22:09;;;;;;;3.38;2.30;;;;;;;2.72;66.02;101579.34;698320;28;36921;-64
2020/12/26 00:22:33;;;;;;;3.50;2.20;;;;;;;2.70;66.10;101568.78;699655;28;870;-63
2020/12/26 00:22:55;;;;;;;5.30;2.30;;;;;;;2.70;66.12;101573.25;696698;28;92304;-64
2020/12/26 00:23:16;;;;;;;5.40;2.23;;;;;;;2.72;66.15;101566.00;697870;28;23461;-64
2020/12/26 00:23:37;;;;;;;4.13;2.00;;;;;;;2.73;66.16;101570.38;698322;28;46384;-64
2020/12/26 00:23:59;;;;;;;2.85;2.22;;;;;;;2.74;66.22;101566.72;699153;28;21498;-63
2020/12/26 00:24:20;;;;;;;3.47;2.63;;;;;;;2.73;66.14;101565.03;699224;28;21506;-64
2020/12/26 00:24:42;;;;;;;4.63;2.60;;;;;;;2.74;66.17;101565.91;697930;28;46318;-63
2020/12/26 00:25:03;;;;;;;4.50;2.25;;;;;;;2.75;66.14;101568.44;698742;28;21429;-64
2020/12/26 00:25:24;;;;;;;2.30;2.10;;;;;;;2.75;66.06;101570.28;697751;28;47241;-64
2020/12/26 00:25:46;;;;;;;3.15;2.33;;;;;;;2.74;66.01;101565.91;699015;28;23447;-63
2020/12/26 00:26:07;;;;;;;3.13;2.15;;;;;;;2.73;65.96;101567.72;697573;28;46328;-63
2020/12/26 00:26:29;;;;;;;5.07;2.28;;;;;;;2.74;66.04;101568.56;699285;28;21314;-65
2020/12/26 00:26:50;;;;;;;3.92;2.25;;;;;;;2.73;66.01;101569.50;699277;28;21549;-64
2020/12/26 00:27:12;;;;;;;2.97;2.00;;;;;;;2.74;66.10;101569.41;698352;28;46341;-64
2020/12/26 00:27:33;;;;;;;3.10;2.20;;;;;;;2.74;66.11;101573.91;699390;28;24046;-63
2020/12/26 00:27:54;;;;;;;3.55;2.42;;;;;;;2.72;66.11;101565.16;697928;28;46361;-64
2020/12/26 00:28:15;;;;;;;3.88;2.55;;;;;;;2.72;66.11;101567.81;699305;28;21551;-64
2020/12/26 00:28:37;;;;;;;2.50;2.30;;;;;;;2.72;66.21;101570.50;698802;28;22385;-62
2020/12/26 00:28:58;;;;;;;2.40;2.20;;;;;;;2.71;66.27;101574.94;698914;28;28020;-64
2020/12/26 00:29:20;;;;;;;2.40;2.22;;;;;;;2.73;66.13;101572.19;699226;28;22411;-65
2020/12/26 00:29:41;;;;;;;4.00;2.10;;;;;;;2.72;66.11;101568.66;698734;28;39369;-63
2020/12/26 00:30:03;;;;;;;5.15;2.00;;;;;;;2.74;66.08;101572.06;699224;28;15682;-64
2020/12/26 00:30:25;;;;;;;7.60;2.80;;;;;;;2.74;66.13;101573.91;698102;28;45176;-63
2020/12/26 00:30:46;;;;;;;4.90;2.60;;;;;;;2.73;66.01;101573.06;698061;28;45179;-64
2020/12/26 00:31:11;;;;;;;7.10;2.65;;;;;;;2.72;66.00;101571.34;698823;28;22412;-63
2020/12/26 00:31:33;;;;;;;4.00;2.35;;;;;;;2.72;66.07;101576.66;695972;28;113625;-65
2020/12/26 00:31:54;;;;;;;2.60;2.40;;;;;;;2.69;66.44;101569.72;697743;28;42923;-64
2020/12/26 00:32:15;;;;;;;3.25;2.17;;;;;;;2.71;66.09;101574.94;698750;28;1204;-64
2020/12/26 00:32:36;;;;;;;2.45;2.05;;;;;;;2.72;66.07;101576.66;698588;28;21554;-64
2020/12/26 00:32:58;;;;;;;2.35;2.20;;;;;;;2.74;65.95;101573.91;698704;28;23257;-65
2020/12/26 00:33:19;;;;;;;3.90;2.25;;;;;;;2.75;66.06;101568.44;696578;28;45373;-63
2020/12/26 00:33:41;;;;;;;4.38;2.20;;;;;;;2.76;65.98;101571.97;699029;28;23489;-66
2020/12/26 00:34:02;;;;;;;3.08;2.20;;;;;;;2.76;66.03;101572.84;698315;28;44454;-64
2020/12/26 00:34:25;;;;;;;3.85;2.47;;;;;;;2.76;66.08;101579.97;699153;28;22393;-63
2020/12/26 00:34:46;;;;;;;3.72;2.28;;;;;;;2.75;66.08;101565.78;696875;28;69463;-64
2020/12/26 00:35:07;;;;;;;2.50;2.30;;;;;;;2.75;66.06;101571.13;698828;28;22415;-63
2020/12/26 00:35:29;;;;;;;2.30;2.10;;;;;;;2.74;65.98;101574.75;699296;28;22232;-65
2020/12/26 00:35:50;;;;;;;2.97;2.30;;;;;;;2.75;65.99;101576.47;698030;28;46418;-66
2020/12/26 00:36:12;;;;;;;2.88;2.20;;;;;;;2.74;66.00;101572.06;699849;28;969;-65
2020/12/26 00:36:36;;;;;;;4.07;2.10;;;;;;;2.74;66.10;101576.56;697304;28;46319;-64
2020/12/26 00:36:58;;;;;;;3.47;2.17;;;;;;;2.74;66.03;101572.06;696162;28;93100;-64
2020/12/26 00:37:20;;;;;;;3.50;2.30;;;;;;;2.73;65.96;101578.38;698012;28;44152;-64
2020/12/26 00:37:41;;;;;;;2.63;2.25;;;;;;;2.73;65.85;101572.19;699816;28;889;-63
2020/12/26 00:38:02;;;;;;;2.95;2.13;;;;;;;2.75;66.01;101580.94;699432;28;10448;-64
2020/12/26 00:38:23;;;;;;;2.42;2.10;;;;;;;2.74;65.89;101579.22;699229;28;17370;-63
2020/12/26 00:38:45;;;;;;;3.03;2.22;;;;;;;2.74;66.07;101571.22;700035;28;944;-63
2020/12/26 00:39:06;;;;;;;1.98;1.80;;;;;;;2.75;66.08;101576.47;698224;28;47249;-64
2020/12/26 00:39:28;;;;;;;2.38;2.17;;;;;;;2.75;65.93;101575.63;699012;28;23333;-64
2020/12/26 00:39:49;;;;;;;2.17;2.08;;;;;;;2.75;65.87;101587.13;698603;28;47267;-64
2020/12/26 00:40:10;;;;;;;2.30;2.10;;;;;;;2.76;65.93;101579.97;698803;28;23490;-62
2020/12/26 00:40:32;;;;;;;3.22;2.25;;;;;;;2.74;65.81;101585.41;697956;28;17505;-63
2020/12/26 00:40:53;;;;;;;3.30;2.20;;;;;;;2.74;65.80;101579.22;698259;28;46390;-64
2020/12/26 00:41:15;;;;;;;2.97;2.20;;;;;;;2.73;65.95;101577.50;698929;28;22407;-62
2020/12/26 00:41:37;;;;;;;2.50;2.30;;;;;;;2.73;65.81;101575.72;699292;28;911;-63
2020/12/26 00:41:58;;;;;;;2.55;2.10;;;;;;;2.73;66.04;101580.19;698876;28;44277;-63
2020/12/26 00:42:19;;;;;;;2.33;2.10;;;;;;;2.71;65.99;101582.94;698354;28;22486;-65
2020/12/26 00:42:41;;;;;;;2.40;2.15;;;;;;;2.70;65.83;101591.94;697276;28;46540;-63
2020/12/26 00:43:02;;;;;;;3.42;2.40;;;;;;;2.69;65.90;101583.06;699078;28;21360;-63
2020/12/26 00:43:23;;;;;;;3.45;2.42;;;;;;;2.71;65.98;101588.28;699027;28;21189;-62
2020/12/26 00:43:45;;;;;;;5.38;2.50;;;;;;;2.74;66.00;101593.41;699062;28;18155;-65
2020/12/26 00:44:06;;;;;;;3.08;2.10;;;;;;;2.73;65.99;101585.50;698420;28;45565;-65
2020/12/26 00:44:27;;;;;;;3.35;2.22;;;;;;;2.72;65.96;101584.66;698929;28;14784;-62
2020/12/26 00:44:49;;;;;;;3.10;2.00;;;;;;;2.71;66.04;101582.94;697457;28;44433;-63
2020/12/26 00:45:11;;;;;;;3.45;2.05;;;;;;;2.72;65.88;101582.00;697096;28;22371;-64
2020/12/26 00:45:32;;;;;;;2.88;2.08;;;;;;;2.70;65.95;101590.09;696669;28;46408;-65
2020/12/26 00:45:53;;;;;;;2.78;2.17;;;;;;;2.71;65.93;101590.94;697498;28;22459;-63
2020/12/26 00:46:15;;;;;;;3.55;2.00;;;;;;;2.73;65.97;101590.84;696829;28;46463;-66
2020/12/26 00:46:36;;;;;;;3.15;2.08;;;;;;;2.73;65.91;101590.84;697546;28;23401;-64
2020/12/26 00:46:58;;;;;;;2.53;2.30;;;;;;;2.72;66.06;101582.00;696425;28;46338;-64
2020/12/26 00:47:19;;;;;;;3.03;2.28;;;;;;;2.73;66.04;101596.19;695082;28;21544;-65
2020/12/26 00:47:44;;;;;;;2.15;1.95;;;;;;;2.75;65.95;101586.28;692634;28;112527;-64
2020/12/26 00:48:06;;;;;;;3.53;2.17;;;;;;;2.73;65.93;101582.84;692000;28;20404;-64
2020/12/26 00:48:27;;;;;;;2.72;1.83;;;;;;;2.72;66.07;101582.00;690979;28;46350;-65
2020/12/26 00:48:49;;;;;;;2.20;2.00;;;;;;;2.72;66.00;101590.00;690441;28;45286;-64
2020/12/26 00:49:10;;;;;;;2.00;1.90;;;;;;;2.74;66.01;101582.75;690273;28;22400;-65
2020/12/26 00:49:33;;;;;;;2.00;1.90;;;;;;;2.74;65.94;101581.91;688245;28;46319;-63
2020/12/26 00:49:54;;;;;;;6.93;2.38;;;;;;;2.75;65.93;101583.63;688994;28;46560;-64
2020/12/26 00:50:16;;;;;;;3.83;2.50;;;;;;;2.75;65.90;101589.78;689588;28;44340;-63
2020/12/26 00:50:37;;;;;;;2.35;2.10;;;;;;;2.75;65.94;101588.94;690545;28;23279;-64
2020/12/26 00:50:59;;;;;;;2.85;2.10;;;;;;;2.75;66.04;101581.78;690311;28;45267;-64
2020/12/26 00:51:21;;;;;;;2.35;2.08;;;;;;;2.77;65.88;101589.69;690732;28;34154;-65
2020/12/26 00:51:42;;;;;;;2.20;2.00;;;;;;;2.74;65.98;101581.91;692959;28;23535;-64
2020/12/26 00:52:03;;;;;;;3.65;2.28;;;;;;;2.74;65.90;101587.22;693141;28;13614;-64
2020/12/26 00:52:24;;;;;;;3.58;1.95;;;;;;;2.73;65.96;101586.38;692469;28;44319;-64
2020/12/26 00:52:46;;;;;;;4.32;2.10;;;;;;;2.74;66.03;101581.91;695817;28;21546;-64
2020/12/26 00:53:08;;;;;;;3.63;2.30;;;;;;;2.72;65.88;101583.81;695671;28;33162;-64
2020/12/26 00:53:29;;;;;;;3.90;2.17;;;;;;;2.72;65.95;101583.81;698944;28;22440;-64
2020/12/26 00:53:50;;;;;;;4.38;2.20;;;;;;;2.70;65.93;101589.25;696186;28;22402;-64
2020/12/26 00:54:12;;;;;;;3.65;2.20;;;;;;;2.69;66.01;101587.53;693894;28;44356;-65
2020/12/26 00:54:33;;;;;;;3.60;2.17;;;;;;;2.68;65.94;101580.50;694440;28;21546;-65
2020/12/26 00:54:55;;;;;;;2.10;2.00;;;;;;;2.66;65.86;101582.41;693972;28;44393;-64
2020/12/26 00:55:16;;;;;;;2.10;2.00;;;;;;;2.66;66.00;101585.94;694249;28;21524;-64
2020/12/26 00:55:38;;;;;;;2.10;1.98;;;;;;;2.66;66.06;101587.75;694305;28;47185;-64
2020/12/26 00:56:00;;;;;;;3.00;2.20;;;;;;;2.66;66.01;101587.75;694017;28;45234;-64
2020/12/26 00:56:21;;;;;;;2.55;2.30;;;;;;;2.66;66.03;101588.59;696070;28;23860;-64
2020/12/26 00:56:43;;;;;;;3.55;2.08;;;;;;;2.67;66.17;101587.66;695460;28;46443;-65
2020/12/26 00:57:05;;;;;;;4.68;2.40;;;;;;;2.67;66.11;101581.47;694621;28;46231;-64
2020/12/26 00:57:28;;;;;;;5.10;2.30;;;;;;;2.67;66.10;101589.47;690917;28;69597;-64
2020/12/26 00:57:49;;;;;;;2.45;2.10;;;;;;;2.67;66.24;101584.13;689054;28;23691;-64
2020/12/26 00:58:10;;;;;;;3.65;2.17;;;;;;;2.68;66.20;101591.16;691497;28;23494;-64
2020/12/26 00:58:32;;;;;;;5.07;2.15;;;;;;;2.66;66.16;101596.59;690991;28;45319;-64
2020/12/26 00:58:54;;;;;;;3.80;2.33;;;;;;;2.69;66.23;101592.88;690728;28;45209;-63
2020/12/26 00:59:15;;;;;;;4.70;2.10;;;;;;;2.70;66.21;101595.44;691993;28;21563;-65
2020/12/26 00:59:38;;;;;;;3.55;2.30;;;;;;;2.70;66.17;101590.09;696158;28;46439;-64
2020/12/26 01:00:00;;;;;;;3.65;2.42;;;;;;;2.71;66.17;101593.63;693683;28;68022;-65
2020/12/26 01:00:22;;;;;;;3.88;2.13;;;;;;;2.71;66.20;101590.94;690773;28;69702;-64
2020/12/26 01:00:53;;;;;;;3.25;2.20;;;;;;;2.73;66.20;101590.84;688671;28;137602;-64
2020/12/26 01:01:54;;;;;;;2.75;2.40;;;;;;;2.70;66.08;101589.25;680259;28;137641;-62
2020/12/26 01:02:21;;;;;;;3.72;2.28;;;;;;;2.69;66.12;101593.72;697544;28;61807;-64
2020/12/26 01:02:47;;;;;;;2.90;2.15;;;;;;;2.69;66.06;101587.53;695421;28;137998;-64
2020/12/26 01:03:12;;;;;;;2.38;2.17;;;;;;;2.69;66.08;101584.88;696198;28;105268;-65
2020/12/26 01:03:34;;;;;;;2.40;2.20;;;;;;;2.70;66.14;101592.78;695845;28;5838;-64
2020/12/26 01:03:55;;;;;;;3.13;2.15;;;;;;;2.72;66.27;101587.34;695135;28;22462;-64
2020/12/26 01:04:16;;;;;;;2.55;2.20;;;;;;;2.71;66.11;101590.94;695069;28;22405;-64
2020/12/26 01:04:39;;;;;;;3.38;2.10;;;;;;;2.71;65.95;101590.94;693498;28;46453;-64
2020/12/26 01:05:00;;;;;;;2.45;1.85;;;;;;;2.70;66.14;101590.09;694301;28;44449;-64
2020/12/26 01:05:21;;;;;;;2.43;2.23;;;;;;;2.72;65.94;101589.16;696083;28;24421;-64
2020/12/26 01:05:42;;;;;;;3.88;2.20;;;;;;;2.71;65.87;101596.28;699676;28;20704;-64
2020/12/26 01:06:04;;;;;;;4.40;2.20;;;;;;;2.72;65.99;101592.66;699237;28;24626;-64
2020/12/26 01:06:25;;;;;;;5.90;2.38;;;;;;;2.70;66.01;101587.44;698680;28;40724;-65
2020/12/26 01:06:52;;;;;;;6.07;2.42;;;;;;;2.71;65.82;101582.94;699387;28;23054;-64
2020/12/26 01:07:13;;;;;;;4.20;2.10;;;;;;;2.71;65.97;101596.28;694876;28;138804;-64
2020/12/26 01:07:35;;;;;;;3.72;2.00;;;;;;;2.72;65.80;101598.00;699966;28;952;-65
2020/12/26 01:07:56;;;;;;;2.55;1.98;;;;;;;2.74;65.82;101595.22;698862;28;41748;-64
2020/12/26 01:08:17;;;;;;;3.17;2.17;;;;;;;2.75;65.89;101596.97;699588;28;22369;-64
2020/12/26 01:08:39;;;;;;;3.90;2.10;;;;;;;2.75;65.87;101592.47;699735;28;22402;-64
2020/12/26 01:09:00;;;;;;;3.55;2.17;;;;;;;2.75;65.80;101594.28;699040;28;38552;-64
2020/12/26 01:09:22;;;;;;;2.78;2.20;;;;;;;2.74;65.71;101590.75;699881;28;22527;-65
2020/12/26 01:09:44;;;;;;;3.15;2.10;;;;;;;2.73;65.67;101597.06;698955;28;30241;-64
2020/12/26 01:10:05;;;;;;;2.38;2.03;;;;;;;2.72;65.79;101598.00;699038;28;19603;-64
2020/12/26 01:10:27;;;;;;;2.25;2.00;;;;;;;2.71;65.67;101593.63;698615;28;47480;-65
2020/12/26 01:10:48;;;;;;;2.10;2.00;;;;;;;2.70;65.66;101594.59;699087;28;22540;-64
2020/12/26 01:11:11;;;;;;;2.38;2.00;;;;;;;2.69;65.65;101601.72;699722;28;23405;-65
2020/12/26 01:11:32;;;;;;;3.00;1.90;;;;;;;2.68;65.75;101596.50;697621;28;69307;-64
2020/12/26 01:11:53;;;;;;;2.80;1.80;;;;;;;2.70;65.98;101597.28;697909;28;46362;-65
2020/12/26 01:12:14;;;;;;;3.80;2.47;;;;;;;2.71;65.85;101598.97;699162;28;21944;-64
2020/12/26 01:12:36;;;;;;;4.13;2.25;;;;;;;2.71;66.04;101604.28;699847;28;16822;-65
2020/12/26 01:12:57;;;;;;;2.38;2.17;;;;;;;2.72;65.93;101598.00;698885;28;46150;-64
2020/12/26 01:13:19;;;;;;;2.25;2.05;;;;;;;2.73;65.81;101597.06;699601;28;22404;-63
2020/12/26 01:13:40;;;;;;;2.50;2.30;;;;;;;2.73;65.73;101597.06;699493;28;22408;-65
2020/12/26 01:14:02;;;;;;;2.42;2.13;;;;;;;2.73;65.81;101601.53;698389;28;44354;-64
2020/12/26 01:14:23;;;;;;;4.95;2.08;;;;;;;2.72;65.90;101600.69;698958;28;22262;-64
2020/12/26 01:14:44;;;;;;;3.22;2.22;;;;;;;2.71;65.84;101598.97;697987;28;46320;-64
2020/12/26 01:15:05;;;;;;;2.97;2.38;;;;;;;2.69;65.78;101596.38;699917;28;14525;-64
2020/12/26 01:15:27;;;;;;;3.38;1.92;;;;;;;2.68;65.86;101596.50;699606;28;22494;-65
2020/12/26 01:15:52;;;;;;;3.90;2.20;;;;;;;2.67;65.86;101603.66;698017;28;45294;-65
2020/12/26 01:16:13;;;;;;;3.03;2.00;;;;;;;2.68;65.88;101601.84;697434;28;89401;-64
2020/12/26 01:16:34;;;;;;;2.42;2.00;;;;;;;2.70;65.84;101602.59;699459;28;15724;-65
2020/12/26 01:16:56;;;;;;;2.83;2.25;;;;;;;2.69;65.93;101607.06;699395;28;21209;-65
2020/12/26 01:17:17;;;;;;;4.60;2.20;;;;;;;2.69;65.82;101603.56;699159;28;24399;-64
2020/12/26 01:17:39;;;;;;;4.38;1.95;;;;;;;2.68;65.87;101601.84;699449;28;22389;-64
2020/12/26 01:18:00;;;;;;;3.00;1.80;;;;;;;2.68;65.95;101602.72;699603;28;22524;-65
2020/12/26 01:18:21;;;;;;;5.03;2.00;;;;;;;2.70;66.03;101610.59;698755;28;46386;-64
2020/12/26 01:18:43;;;;;;;3.47;2.03;;;;;;;2.71;66.01;101606.97;699777;28;22394;-65
2020/12/26 01:19:04;;;;;;;2.75;2.10;;;;;;;2.72;65.84;101606.00;698727;28;44938;-64
2020/12/26 01:19:27;;;;;;;2.88;2.10;;;;;;;2.71;65.81;101604.28;699219;28;23822;-65
2020/12/26 01:19:50;;;;;;;4.82;2.25;;;;;;;2.70;65.73;101603.44;698040;28;67541;-66
2020/12/26 01:20:11;;;;;;;3.92;2.10;;;;;;;2.72;65.85;101602.50;698274;28;46267;-65
2020/12/26 01:20:33;;;;;;;2.28;1.90;;;;;;;2.72;65.70;101611.34;698583;28;45293;-64
2020/12/26 01:20:54;;;;;;;2.78;1.70;;;;;;;2.73;65.65;101609.53;699676;28;23169;-66
2020/12/26 01:21:15;;;;;;;2.88;2.10;;;;;;;2.72;65.69;101607.84;698805;28;45007;-65
2020/12/26 01:21:36;;;;;;;2.15;1.98;;;;;;;2.70;65.74;101606.13;700202;28;6440;-65
2020/12/26 01:21:58;;;;;;;2.38;2.10;;;;;;;2.69;65.70;101607.06;700546;28;914;-65
2020/12/26 01:22:19;;;;;;;2.08;1.90;;;;;;;2.68;65.58;101607.16;698399;28;43113;-64
2020/12/26 01:22:41;;;;;;;2.47;2.10;;;;;;;2.67;65.74;101609.00;699406;28;23508;-64
2020/12/26 01:23:02;;;;;;;2.55;2.00;;;;;;;2.69;65.86;101609.72;698492;28;45053;-65
2020/12/26 01:23:23;;;;;;;2.08;1.95;;;;;;;2.68;65.83;101610.72;699397;28;22399;-64
2020/12/26 01:23:45;;;;;;;2.20;2.00;;;;;;;2.71;65.86;101609.63;699433;28;23467;-65
2020/12/26 01:24:06;;;;;;;2.28;2.08;;;;;;;2.72;65.73;101610.50;695233;28;45257;-65
2020/12/26 01:24:28;;;;;;;2.10;2.00;;;;;;;2.70;65.78;101613.28;696743;28;23473;-65
2020/12/26 01:24:49;;;;;;;2.38;2.13;;;;;;;2.70;65.78;101611.44;695385;28;46394;-64
2020/12/26 01:25:12;;;;;;;2.50;1.98;;;;;;;2.69;65.86;101611.56;695967;28;24370;-64
2020/12/26 01:25:33;;;;;;;2.78;2.00;;;;;;;2.72;65.90;101621.16;694904;28;67939;-64
2020/12/26 01:25:54;;;;;;;2.20;1.90;;;;;;;2.72;65.83;101614.00;697400;28;22410;-64
2020/12/26 01:26:16;;;;;;;1.98;1.80;;;;;;;2.72;65.69;101613.16;699676;28;19973;-65
2020/12/26 01:26:37;;;;;;;2.13;1.98;;;;;;;2.70;65.69;101610.59;699520;28;22405;-64
2020/12/26 01:26:58;;;;;;;2.17;2.03;;;;;;;2.68;65.82;101612.50;699540;28;23421;-65
2020/12/26 01:27:20;;;;;;;4.75;2.15;;;;;;;2.70;65.79;101618.59;699090;28;23489;-64
2020/12/26 01:27:41;;;;;;;3.00;1.98;;;;;;;2.70;65.77;101618.59;698050;28;41555;-64
2020/12/26 01:28:02;;;;;;;3.25;2.17;;;;;;;2.70;65.79;101614.13;699645;28;19197;-65
2020/12/26 01:28:25;;;;;;;3.05;2.00;;;;;;;2.70;65.67;101608.78;698796;28;44425;-64
2020/12/26 01:28:47;;;;;;;2.45;2.05;;;;;;;2.73;65.83;101612.19;698604;28;45207;-65
2020/12/26 01:29:08;;;;;;;2.78;2.00;;;;;;;2.72;65.67;101610.50;698302;28;46279;-65
2020/12/26 01:29:29;;;;;;;2.83;2.15;;;;;;;2.73;65.70;101609.53;699308;28;22097;-65
2020/12/26 01:29:50;;;;;;;3.83;2.28;;;;;;;2.71;65.55;101617.63;699563;28;15723;-64
2020/12/26 01:30:12;;;;;;;3.90;2.30;;;;;;;2.70;65.47;101611.44;699403;28;18701;-64
2020/12/26 01:30:33;;;;;;;2.97;2.10;;;;;;;2.70;65.62;101616.78;698802;28;46337;-64
2020/12/26 01:30:54;;;;;;;2.15;2.00;;;;;;;2.72;65.50;101615.84;700471;28;833;-64
2020/12/26 01:31:16;;;;;;;2.13;1.92;;;;;;;2.73;65.61;101621.06;699512;28;23538;-64
2020/12/26 01:31:37;;;;;;;2.00;1.83;;;;;;;2.73;65.63;101613.06;698921;28;46216;-64
2020/12/26 01:31:58;;;;;;;3.80;1.83;;;;;;;2.73;65.59;101621.06;700084;28;10587;-64
2020/12/26 01:32:22;;;;;;;5.70;2.17;;;;;;;2.73;65.53;101620.19;698462;28;44530;-64
2020/12/26 01:32:43;;;;;;;2.78;1.90;;;;;;;2.72;65.42;101619.34;698056;28;67563;-63
2020/12/26 01:33:04;;;;;;;2.30;2.10;;;;;;;2.72;65.60;101614.00;699554;28;22653;-63
2020/12/26 01:33:26;;;;;;;2.63;2.10;;;;;;;2.72;65.45;101615.84;699634;28;22358;-63
2020/12/26 01:33:47;;;;;;;2.03;1.90;;;;;;;2.70;65.34;101616.78;698522;28;44385;-64
2020/12/26 01:34:09;;;;;;;5.38;2.30;;;;;;;2.70;65.42;101616.78;699125;28;21518;-63
2020/12/26 01:34:30;;;;;;;4.57;2.42;;;;;;;2.70;65.47;101613.28;698514;28;46341;-63
2020/12/26 01:34:52;;;;;;;2.78;2.10;;;;;;;2.69;65.47;101622.22;698704;28;23470;-64
2020/12/26 01:35:13;;;;;;;2.28;1.85;;;;;;;2.68;65.55;101615.16;697981;28;70386;-63
2020/12/26 01:35:35;;;;;;;2.13;1.92;;;;;;;2.69;65.43;101627.56;695047;28;46498;-64
2020/12/26 01:35:56;;;;;;;2.30;2.10;;;;;;;2.68;65.55;101625.84;695987;28;22439;-64
2020/12/26 01:36:18;;;;;;;2.00;1.85;;;;;;;2.67;65.51;101621.47;696289;28;22419;-64
2020/12/26 01:36:39;;;;;;;3.67;2.30;;;;;;;2.63;65.69;101610.19;695518;28;45248;-64
2020/12/26 01:37:01;;;;;;;4.03;2.35;;;;;;;2.68;65.62;101623.16;696726;28;21652;-65
2020/12/26 01:37:22;;;;;;;3.75;2.08;;;;;;;2.67;65.64;101622.31;696429;28;44402;-64
2020/12/26 01:37:44;;;;;;;1.98;1.85;;;;;;;2.67;65.76;101621.47;699093;28;23427;-64
2020/12/26 01:38:05;;;;;;;3.28;1.85;;;;;;;2.65;65.72;101623.38;698371;28;46359;-66
2020/12/26 01:38:26;;;;;;;2.72;2.08;;;;;;;2.66;65.77;101625.09;699290;28;21550;-64
2020/12/26 01:38:47;;;;;;;2.40;2.20;;;;;;;2.66;65.81;101622.44;699050;28;23452;-64
2020/12/26 01:39:09;;;;;;;2.75;2.17;;;;;;;2.66;65.64;101625.09;698413;28;45286;-64
2020/12/26 01:39:30;;;;;;;4.20;2.10;;;;;;;2.66;65.77;101623.28;699768;28;23384;-64
2020/12/26 01:39:52;;;;;;;3.90;1.85;;;;;;;2.66;65.65;101628.59;698676;28;42258;-63
2020/12/26 01:40:13;;;;;;;3.58;2.30;;;;;;;2.66;65.79;101625.09;700012;28;10949;-63
2020/12/26 01:40:35;;;;;;;2.90;2.00;;;;;;;2.65;65.84;101626.03;699893;28;21556;-64
2020/12/26 01:40:57;;;;;;;2.17;1.88;;;;;;;2.66;65.80;101628.59;697587;28;69582;-64
2020/12/26 01:41:18;;;;;;;3.13;2.22;;;;;;;2.65;65.66;101626.03;698555;28;46322;-64
2020/12/26 01:41:40;;;;;;;2.90;1.95;;;;;;;2.66;65.77;101627.75;699872;28;21507;-64
2020/12/26 01:42:01;;;;;;;4.13;2.13;;;;;;;2.65;65.83;101624.25;699843;28;16218;-64
2020/12/26 01:42:22;;;;;;;2.22;2.03;;;;;;;2.65;66.10;101624.25;699719;28;23532;-65
2020/12/26 01:42:47;;;;;;;2.88;1.95;;;;;;;2.65;65.83;101623.38;698756;28;45875;-65
2020/12/26 01:43:08;;;;;;;2.28;2.08;;;;;;;2.64;65.93;101621.69;697235;28;92576;-65
2020/12/26 01:43:29;;;;;;;2.30;2.10;;;;;;;2.63;65.46;101617.31;698407;28;23512;-66
2020/12/26 01:43:55;;;;;;;2.15;2.05;;;;;;;2.63;65.85;101617.31;698465;28;46369;-64